GMTA

Details ICAO GMTA (AHU)
Name CHERIF EL IDRISSI
Region Morocco
Timezone Africa/Casablanca (UTC+0.0)
Plans Departing 13
Arriving 16
Stats Elevation 95 ft / 29 m (AMSL)
Location 35.177296° -3.839555°
Runways 1
Magnetic Variation 0.696° W
Sunrise 2017-12-13 07:16:32 UTC / 2017-12-13 07:16:32 Local
Sunset 2017-12-13 17:05:26 UTC / 2017-12-13 17:05:26 Local
Advertisement - Login to hide

Runways

ID Width Length Bearing (true) Bearing (mag) Surface Threshold Offset Overrun Length
18 148 ft / 45 m 8,234 ft / 2,510 m 172.65° 173.35° Asphalt 0 ft / 0 m 0 ft / 0 m
36 148 ft / 45 m 8,234 ft / 2,510 m 352.65° 353.35° Asphalt 0 ft / 0 m 0 ft / 0 m

Map

Weather


0- 5 10 15 20 25 30 35+ Temperature / ° C

Clouds and Precipitation
Forecast for 2017-12-13 12:00 UTC. Updated 41 minutes ago

Ground ~20,000 ft ~40,000 ft Winds

METAR

GMTA 130800Z 14006KT CAVOK 06/05 Q1027 NOSIG

TAF

TAF GMTA 130500Z 1306/1412 17008KT CAVOK

Frequencies

Tower 118.70 MHz AL HOCEIMA TWR
Tower 123.90 MHz AL HOCEIMA TWR
Warning: Do not use this data for real-world aviation or navigation. No guarantee of current accuracy is given.